createdAt,value
2019-05-01T00:00:23.354Z,7.57
2019-05-01T00:03:09.879Z,5.53
2019-05-01T00:05:46.783Z,5.63
2019-05-01T00:08:15.738Z,5.87
2019-05-01T00:10:44.402Z,5.97
2019-05-01T00:13:13.398Z,5.47
2019-05-01T00:15:42.714Z,6.50
2019-05-01T00:18:11.290Z,5.80
2019-05-01T00:20:40.536Z,7.13
2019-05-01T00:23:09.222Z,6.40
2019-05-01T00:25:37.752Z,7.20
2019-05-01T00:28:06.798Z,8.37
2019-05-01T00:30:36.073Z,8.17
2019-05-01T00:33:05.007Z,7.70
2019-05-01T00:35:33.700Z,7.50
2019-05-01T00:38:02.550Z,6.63
2019-05-01T00:40:31.085Z,6.50
2019-05-01T00:42:59.686Z,6.80
2019-05-01T00:45:28.602Z,6.40
2019-05-01T00:47:57.154Z,6.27
2019-05-01T00:50:25.746Z,6.17
2019-05-01T00:52:54.399Z,6.40
2019-05-01T00:55:39.390Z,6.10
2019-05-01T00:58:09.869Z,7.17
2019-05-01T01:00:52.007Z,6.53
2019-05-01T01:03:20.639Z,6.70
2019-05-01T01:05:49.240Z,6.77
2019-05-01T01:08:17.875Z,7.03
2019-05-01T01:10:46.451Z,6.93
2019-05-01T01:13:15.022Z,7.90
2019-05-01T01:15:43.830Z,7.70
2019-05-01T01:18:12.462Z,8.23
2019-05-01T01:20:41.505Z,7.43
2019-05-01T01:23:11.005Z,7.23
2019-05-01T01:25:39.638Z,6.20
2019-05-01T01:28:08.424Z,6.03
2019-05-01T01:30:37.113Z,6.80
2019-05-01T01:33:05.914Z,6.47
2019-05-01T01:35:34.503Z,7.43
2019-05-01T01:38:03.545Z,7.47
2019-05-01T01:40:32.673Z,6.93
2019-05-01T01:43:19.954Z,7.20
2019-05-01T01:45:50.459Z,6.40
2019-05-01T01:48:19.748Z,7.27
2019-05-01T01:50:49.220Z,7.03
2019-05-01T01:53:20.371Z,7.47
2019-05-01T01:55:50.336Z,7.43
2019-05-01T01:58:20.017Z,7.80
2019-05-01T02:00:53.523Z,8.87
2019-05-01T02:03:24.095Z,8.17
2019-05-01T02:05:53.443Z,8.33
2019-05-01T02:08:22.123Z,7.30
2019-05-01T02:10:51.117Z,7.67
2019-05-01T02:13:20.055Z,7.57
2019-05-01T02:15:48.755Z,7.47
2019-05-01T02:18:17.511Z,7.07
2019-05-01T02:20:46.463Z,7.00
2019-05-01T02:23:15.073Z,6.40
2019-05-01T02:25:44.581Z,7.53
2019-05-01T02:28:22.649Z,7.53
2019-05-01T02:31:26.687Z,7.17
2019-05-01T02:33:43.263Z,6.63
2019-05-01T02:36:13.969Z,6.80
2019-05-01T02:38:44.885Z,7.13
2019-05-01T02:41:16.967Z,6.93
2019-05-01T02:43:48.632Z,7.55
2019-05-01T02:46:18.578Z,7.07
2019-05-01T02:48:55.854Z,6.20
2019-05-01T02:51:26.392Z,7.43
2019-05-01T02:53:55.986Z,8.60
2019-05-01T02:56:26.954Z,8.17
2019-05-01T02:58:57.746Z,8.20
2019-05-01T03:01:44.710Z,8.37
2019-05-01T03:03:58.158Z,7.07
2019-05-01T03:06:29.578Z,7.00
2019-05-01T03:08:59.813Z,7.33
2019-05-01T03:11:29.709Z,6.63
2019-05-01T03:14:01.636Z,7.07
2019-05-01T03:16:32.427Z,7.73
2019-05-01T03:19:04.192Z,7.70
2019-05-01T03:21:50.679Z,6.57
2019-05-01T03:24:24.886Z,6.63
2019-05-01T03:26:54.813Z,7.00
2019-05-01T03:29:23.471Z,6.33
2019-05-01T03:32:14.484Z,6.70
2019-05-01T03:34:22.671Z,6.57
2019-05-01T03:36:51.582Z,7.80
2019-05-01T03:39:21.017Z,8.23
2019-05-01T03:41:49.682Z,6.90
2019-05-01T03:44:18.424Z,7.30
2019-05-01T03:46:47.888Z,7.37
2019-05-01T03:49:17.179Z,7.33
2019-05-01T03:51:46.151Z,7.33
2019-05-01T03:54:15.773Z,10.33
2019-05-01T03:56:44.711Z,10.43
2019-05-01T03:59:13.867Z,10.57
2019-05-01T04:01:49.959Z,14.03
2019-05-01T04:04:20.326Z,10.23
2019-05-01T04:06:49.277Z,11.40
2019-05-01T04:09:17.915Z,10.43
2019-05-01T04:11:46.957Z,11.13
2019-05-01T04:14:15.665Z,11.40
2019-05-01T04:16:47.476Z,10.77
2019-05-01T04:19:16.886Z,10.30
2019-05-01T04:21:53.994Z,10.30
2019-05-01T04:24:22.789Z,10.63
2019-05-01T04:26:52.094Z,10.33
2019-05-01T04:29:22.894Z,9.63
2019-05-01T04:31:53.998Z,8.90
2019-05-01T04:34:27.657Z,8.27
2019-05-01T04:37:01.375Z,8.30
2019-05-01T04:39:30.179Z,7.70
2019-05-01T04:41:58.843Z,7.97
2019-05-01T04:44:28.441Z,7.03
2019-05-01T04:46:58.510Z,7.27
2019-05-01T04:49:27.660Z,6.67
2019-05-01T04:51:57.205Z,7.00
2019-05-01T04:54:26.230Z,8.03
2019-05-01T04:56:55.001Z,7.00
2019-05-01T04:59:23.994Z,5.37
2019-05-01T05:02:00.388Z,7.10
2019-05-01T05:04:30.229Z,6.23
2019-05-01T05:07:00.393Z,6.43
2019-05-01T05:09:46.612Z,7.20
2019-05-01T05:12:18.835Z,7.90
2019-05-01T05:14:58.609Z,7.75
2019-05-01T05:17:27.618Z,9.77
2019-05-01T05:19:57.136Z,10.17
2019-05-01T05:22:25.867Z,6.83
2019-05-01T05:24:54.595Z,6.43
2019-05-01T05:27:25.035Z,6.93
2019-05-01T05:29:56.696Z,7.77
2019-05-01T05:32:27.183Z,8.13
2019-05-01T05:34:59.588Z,7.30
2019-05-01T05:37:31.427Z,8.53
2019-05-01T05:40:03.329Z,9.57
2019-05-01T05:42:32.296Z,8.70
2019-05-01T05:45:02.094Z,7.90
2019-05-01T05:47:31.084Z,8.47
2019-05-01T05:49:59.950Z,7.90
2019-05-01T05:52:35.283Z,8.40
2019-05-01T05:55:16.203Z,7.67
2019-05-01T05:57:57.825Z,7.53
2019-05-01T06:00:31.811Z,7.72
2019-05-01T06:03:13.594Z,8.93
2019-05-01T06:06:01.134Z,9.73
2019-05-01T06:08:33.219Z,10.35
2019-05-01T06:11:22.502Z,9.45
2019-05-01T06:14:11.551Z,8.23
2019-05-01T06:16:53.679Z,10.60
2019-05-01T06:19:36.597Z,8.53
2019-05-01T06:24:59.890Z,8.75
2019-05-01T06:27:29.835Z,10.15
2019-05-01T06:30:01.029Z,10.18
2019-05-01T06:32:33.497Z,9.60
2019-05-01T06:35:04.643Z,11.53
2019-05-01T06:38:00.751Z,10.53
2019-05-01T06:40:40.630Z,11.73
2019-05-01T06:43:27.171Z,11.73
2019-05-01T06:46:12.844Z,11.65
2019-05-01T06:49:06.786Z,11.15
2019-05-01T06:51:36.593Z,10.15
2019-05-01T06:54:11.203Z,9.23
2019-05-01T06:56:39.942Z,10.05
2019-05-01T06:59:09.931Z,9.08
2019-05-01T07:01:39.462Z,9.70
2019-05-01T07:04:08.596Z,8.53
2019-05-01T07:06:38.038Z,9.48
2019-05-01T07:09:11.960Z,9.75
2019-05-01T07:11:42.559Z,8.88
2019-05-01T07:14:16.421Z,9.15
2019-05-01T07:16:42.277Z,8.95
2019-05-01T07:19:12.070Z,8.83
2019-05-01T07:21:40.881Z,9.18
2019-05-01T07:24:09.577Z,8.93
2019-05-01T07:26:38.603Z,11.83
2019-05-01T07:29:14.889Z,11.40
2019-05-01T07:31:43.961Z,9.28
2019-05-01T07:34:16.632Z,8.55
2019-05-01T07:36:45.604Z,9.20
2019-05-01T07:39:14.620Z,10.15
2019-05-01T07:41:47.764Z,9.43
2019-05-01T07:44:18.202Z,10.03
2019-05-01T07:46:54.310Z,9.83
2019-05-01T07:49:24.917Z,10.20
2019-05-01T07:51:54.745Z,10.40
2019-05-01T07:54:24.387Z,11.00
2019-05-01T07:56:53.795Z,10.72
2019-05-01T07:59:27.352Z,11.63
2019-05-01T08:01:57.780Z,11.93
2019-05-01T08:04:35.797Z,12.00
2019-05-01T08:06:58.702Z,13.58
2019-05-01T08:09:27.683Z,11.08
2019-05-01T08:11:56.396Z,15.50
2019-05-01T08:14:24.985Z,13.30
2019-05-01T08:16:53.643Z,11.20
2019-05-01T08:19:26.903Z,12.60
2019-05-01T08:22:12.303Z,12.88
2019-05-01T08:24:40.947Z,12.55
2019-05-01T08:27:15.717Z,12.93
2019-05-01T08:30:00.271Z,8.15
2019-05-01T08:32:38.994Z,6.45
2019-05-01T08:35:12.409Z,7.05
2019-05-01T08:37:41.166Z,7.15
2019-05-01T08:40:10.160Z,7.40
2019-05-01T08:42:42.631Z,8.50
2019-05-01T08:45:15.799Z,6.28
2019-05-01T08:48:02.754Z,6.80
2019-05-01T08:50:31.544Z,6.85
2019-05-01T08:53:00.098Z,7.90
2019-05-01T08:55:29.472Z,7.55
2019-05-01T08:57:58.071Z,6.80
2019-05-01T09:00:30.973Z,5.97
2019-05-01T09:03:07.891Z,5.40
2019-05-01T09:05:31.292Z,6.83
2019-05-01T09:07:58.589Z,5.47
2019-05-01T09:10:27.284Z,6.28
2019-05-01T09:12:55.824Z,6.58
2019-05-01T09:15:24.526Z,5.72
2019-05-01T09:17:53.354Z,4.80
2019-05-01T09:20:22.197Z,4.95
2019-05-01T09:22:50.882Z,6.00
2019-05-01T09:25:21.448Z,6.55
2019-05-01T09:27:59.471Z,4.80
2019-05-01T09:30:29.848Z,5.33
2019-05-01T09:32:58.780Z,4.28
2019-05-01T09:35:27.581Z,4.72
2019-05-01T09:37:56.177Z,4.65
2019-05-01T09:40:24.842Z,5.53
2019-05-01T09:42:54.620Z,4.78
2019-05-01T09:45:24.393Z,4.55
2019-05-01T09:47:53.071Z,4.83
2019-05-01T09:50:25.800Z,4.12
2019-05-01T09:53:00.864Z,4.20
2019-05-01T09:55:31.903Z,4.60
2019-05-01T09:58:02.768Z,5.03
2019-05-01T10:00:32.658Z,4.55
2019-05-01T10:03:02.504Z,4.10
2019-05-01T10:05:31.644Z,3.62
2019-05-01T10:08:04.387Z,4.90
2019-05-01T10:10:31.187Z,5.15
2019-05-01T10:13:00.062Z,4.58
2019-05-01T10:15:28.739Z,3.95
2019-05-01T10:17:57.351Z,4.58
2019-05-01T10:20:25.917Z,3.85
2019-05-01T10:22:54.510Z,4.70
2019-05-01T10:25:23.081Z,4.97
2019-05-01T10:28:02.116Z,4.10
2019-05-01T10:30:50.674Z,4.45
2019-05-01T10:33:21.030Z,5.10
2019-05-01T10:36:17.766Z,4.40
2019-05-01T10:38:39.932Z,4.00
2019-05-01T10:41:10.939Z,4.00
2019-05-01T10:43:39.560Z,3.98
2019-05-01T10:46:08.776Z,6.30
2019-05-01T10:48:37.435Z,5.40
2019-05-01T10:51:06.122Z,4.28
2019-05-01T10:53:34.950Z,3.83
2019-05-01T10:56:03.872Z,3.72
2019-05-01T10:58:32.622Z,4.50
2019-05-01T11:01:03.009Z,4.22
2019-05-01T11:03:31.783Z,4.08
2019-05-01T11:06:00.651Z,5.25
2019-05-01T11:08:29.598Z,4.00
2019-05-01T11:10:58.140Z,4.10
2019-05-01T11:13:27.325Z,4.83
2019-05-01T11:15:56.038Z,4.67
2019-05-01T11:18:24.825Z,3.67
2019-05-01T11:20:53.579Z,4.62
2019-05-01T11:23:22.610Z,4.70
2019-05-01T11:25:51.207Z,5.75
2019-05-01T11:28:20.029Z,5.92
2019-05-01T11:30:48.683Z,5.58
2019-05-01T11:33:19.487Z,5.67
2019-05-01T11:36:09.289Z,5.92
2019-05-01T11:38:50.755Z,4.58
2019-05-01T11:41:23.888Z,4.10
2019-05-01T11:43:52.848Z,4.65
2019-05-01T11:46:21.747Z,5.03
2019-05-01T11:48:50.311Z,4.87
2019-05-01T11:51:19.048Z,5.70
2019-05-01T11:53:47.975Z,5.53
2019-05-01T11:56:16.583Z,5.08
2019-05-01T11:58:45.359Z,6.50
2019-05-01T12:01:15.723Z,4.95
2019-05-01T12:03:44.421Z,4.90
2019-05-01T12:06:22.715Z,5.10
2019-05-01T12:08:43.702Z,5.97
2019-05-01T12:11:12.937Z,5.47
2019-05-01T12:13:44.051Z,6.15
2019-05-01T12:16:13.651Z,9.30
2019-05-01T12:18:42.313Z,6.35
2019-05-01T12:21:10.926Z,6.00
2019-05-01T12:23:41.397Z,6.65
2019-05-01T12:26:10.007Z,5.60
2019-05-01T12:28:40.396Z,5.62
2019-05-01T12:31:09.737Z,6.22
2019-05-01T12:33:38.657Z,5.83
2019-05-01T12:36:08.355Z,6.67
2019-05-01T12:38:37.015Z,7.40
2019-05-01T12:41:23.643Z,6.28
2019-05-01T12:43:52.245Z,7.37
2019-05-01T12:46:37.942Z,6.45
2019-05-01T12:49:06.599Z,6.90
2019-05-01T12:51:36.090Z,7.47
2019-05-01T12:54:21.881Z,6.47
2019-05-01T12:57:01.412Z,8.58
2019-05-01T12:59:32.077Z,9.33
2019-05-01T13:02:00.422Z,9.05
2019-05-01T13:04:29.266Z,6.03
2019-05-01T13:06:59.268Z,6.75
2019-05-01T13:09:28.401Z,7.47
2019-05-01T13:11:57.375Z,6.05
2019-05-01T13:14:26.066Z,5.85
2019-05-01T13:16:54.791Z,7.83
2019-05-01T13:19:23.482Z,6.33
2019-05-01T13:21:52.143Z,8.10
2019-05-01T13:24:20.870Z,7.90
2019-05-01T13:26:51.171Z,7.78
2019-05-01T13:29:26.938Z,10.15
2019-05-01T13:32:04.093Z,8.03
2019-05-01T13:34:32.742Z,6.22
2019-05-01T13:37:03.051Z,5.35
2019-05-01T13:39:31.891Z,7.00
2019-05-01T13:42:00.859Z,7.45
2019-05-01T13:44:29.662Z,5.90
2019-05-01T13:46:58.291Z,7.90
2019-05-01T13:49:27.122Z,6.67
2019-05-01T13:51:55.960Z,7.58
2019-05-01T13:54:24.950Z,6.40
2019-05-01T13:56:53.606Z,5.78
2019-05-01T13:59:22.339Z,6.12
2019-05-01T14:01:51.333Z,6.50
2019-05-01T14:04:21.714Z,10.40
2019-05-01T14:06:51.372Z,7.85
2019-05-01T14:09:24.872Z,7.03
2019-05-01T14:11:53.506Z,6.17
2019-05-01T14:14:22.206Z,6.33
2019-05-01T14:16:50.898Z,6.90
2019-05-01T14:19:19.615Z,8.70
2019-05-01T14:21:50.044Z,6.72
2019-05-01T14:24:26.394Z,6.97
2019-05-01T14:26:55.118Z,6.30
2019-05-01T14:29:23.715Z,6.35
2019-05-01T14:31:52.403Z,6.58
2019-05-01T14:34:21.005Z,8.60
2019-05-01T14:36:49.751Z,6.80
2019-05-01T14:39:18.453Z,6.95
2019-05-01T14:41:47.049Z,8.13
2019-05-01T14:44:15.661Z,6.85
2019-05-01T14:46:44.285Z,6.10
2019-05-01T14:49:12.971Z,6.53
2019-05-01T14:51:41.642Z,6.55
2019-05-01T14:54:10.429Z,6.53
2019-05-01T14:56:39.930Z,7.17
2019-05-01T14:59:10.314Z,7.12
2019-05-01T15:01:40.383Z,7.53
2019-05-01T15:04:09.018Z,8.00
2019-05-01T15:06:37.777Z,7.35
2019-05-01T15:09:08.864Z,7.60
2019-05-01T15:11:38.654Z,7.65
2019-05-01T15:14:09.215Z,6.87
2019-05-01T15:16:57.505Z,7.42
2019-05-01T15:19:27.801Z,6.58
2019-05-01T15:21:56.476Z,7.50
2019-05-01T15:24:25.520Z,7.30
2019-05-01T15:26:54.364Z,7.33
2019-05-01T15:29:23.039Z,7.65
2019-05-01T15:31:51.691Z,6.55
2019-05-01T15:34:20.260Z,7.50
2019-05-01T15:36:48.942Z,7.08
2019-05-01T15:39:19.160Z,8.35
2019-05-01T15:42:05.907Z,7.42
2019-05-01T15:44:36.126Z,6.37
2019-05-01T15:47:05.242Z,7.58
2019-05-01T15:49:34.583Z,7.03
2019-05-01T15:52:04.661Z,6.95
2019-05-01T15:54:33.429Z,6.22
2019-05-01T15:57:02.200Z,7.22
2019-05-01T15:59:30.981Z,5.53
2019-05-01T16:01:59.973Z,6.80
2019-05-01T16:04:28.726Z,6.22
2019-05-01T16:06:58.412Z,5.65
2019-05-01T16:09:27.723Z,6.60
2019-05-01T16:12:13.091Z,6.37
2019-05-01T16:14:42.323Z,6.78
2019-05-01T16:17:11.195Z,6.37
2019-05-01T16:19:39.802Z,5.97
2019-05-01T16:22:08.553Z,6.03
2019-05-01T16:24:37.442Z,6.62
2019-05-01T16:27:06.459Z,6.10
2019-05-01T16:29:35.460Z,6.35
2019-05-01T16:32:04.386Z,6.22
2019-05-01T16:34:33.128Z,5.90
2019-05-01T16:37:01.868Z,7.10
2019-05-01T16:39:47.397Z,6.78
2019-05-01T16:42:16.157Z,6.70
2019-05-01T16:44:44.827Z,5.17
2019-05-01T16:47:13.473Z,6.22
2019-05-01T16:49:42.212Z,5.90
2019-05-01T16:52:11.278Z,6.00
2019-05-01T16:54:40.398Z,6.08
2019-05-01T16:57:10.759Z,5.78
2019-05-01T16:59:39.605Z,6.08
2019-05-01T17:02:12.670Z,5.65
2019-05-01T17:04:44.133Z,6.15
2019-05-01T17:07:26.741Z,6.50
2019-05-01T17:12:29.551Z,8.15
2019-05-01T17:14:58.312Z,7.08
2019-05-01T17:17:27.611Z,5.85
2019-05-01T17:19:56.405Z,6.47
2019-05-01T17:22:24.982Z,5.97
2019-05-01T17:24:53.805Z,5.00
2019-05-01T17:27:22.495Z,5.35
2019-05-01T17:29:51.477Z,6.50
2019-05-01T17:32:20.669Z,5.85
2019-05-01T17:34:49.661Z,5.90
2019-05-01T17:37:18.506Z,6.50
2019-05-01T17:39:47.369Z,5.35
2019-05-01T17:42:16.344Z,5.90
2019-05-01T17:44:45.011Z,6.67
2019-05-01T17:47:18.047Z,7.33
2019-05-01T17:49:44.903Z,6.28
2019-05-01T17:52:14.862Z,7.03
2019-05-01T17:54:43.552Z,7.70
2019-05-01T17:57:12.134Z,6.87
2019-05-01T17:59:40.824Z,5.40
2019-05-01T18:02:14.273Z,5.58
2019-05-01T18:04:47.050Z,5.15
2019-05-01T18:07:15.830Z,5.62
2019-05-01T18:09:44.581Z,6.15
2019-05-01T18:12:14.456Z,5.15
2019-05-01T18:14:44.250Z,5.58
2019-05-01T18:17:13.356Z,5.37
2019-05-01T18:19:42.234Z,6.65
2019-05-01T18:22:32.263Z,6.87
2019-05-01T18:25:14.569Z,5.67
2019-05-01T18:27:56.477Z,8.30
2019-05-01T18:30:26.845Z,10.05
2019-05-01T18:32:55.683Z,10.53
2019-05-01T18:35:24.268Z,10.90
2019-05-01T18:38:13.027Z,9.68
2019-05-01T18:40:46.777Z,7.90
2019-05-01T18:43:15.946Z,8.23
2019-05-01T18:45:50.282Z,8.58
2019-05-01T18:48:20.024Z,9.38
2019-05-01T18:50:54.505Z,9.73
2019-05-01T18:53:19.938Z,10.28
2019-05-01T18:55:48.577Z,9.78
2019-05-01T18:58:17.590Z,9.93
2019-05-01T19:00:46.430Z,7.25
2019-05-01T19:03:15.068Z,8.18
2019-05-01T19:05:46.989Z,9.10
2019-05-01T19:08:14.128Z,8.28
2019-05-01T19:10:42.927Z,9.45
2019-05-01T19:13:11.763Z,8.93
2019-05-01T19:15:40.497Z,8.50
2019-05-01T19:18:09.227Z,8.23
2019-05-01T19:20:37.975Z,8.68
2019-05-01T19:23:06.733Z,8.10
2019-05-01T19:25:35.618Z,8.38
2019-05-01T19:28:07.642Z,8.50
2019-05-01T19:30:36.591Z,7.40
2019-05-01T19:33:05.812Z,9.48
2019-05-01T19:35:34.712Z,8.98
2019-05-01T19:38:05.135Z,8.68
2019-05-01T19:40:33.776Z,8.73
2019-05-01T19:43:02.749Z,10.08
2019-05-01T19:45:31.294Z,8.00
2019-05-01T19:48:00.179Z,8.00
2019-05-01T19:50:30.620Z,7.70
2019-05-01T19:52:59.668Z,7.08
2019-05-01T19:55:28.775Z,6.17
2019-05-01T19:57:59.171Z,5.65
2019-05-01T20:00:50.230Z,5.62
2019-05-01T20:03:19.407Z,5.35
2019-05-01T20:05:52.550Z,4.47
2019-05-01T20:08:21.211Z,4.95
2019-05-01T20:10:50.245Z,4.17
2019-05-01T20:13:18.902Z,4.37
2019-05-01T20:15:47.477Z,4.80
2019-05-01T20:18:16.283Z,5.87
2019-05-01T20:20:45.388Z,4.55
2019-05-01T20:23:14.058Z,5.05
2019-05-01T20:25:42.778Z,5.33
2019-05-01T20:28:11.298Z,4.60
2019-05-01T20:30:40.147Z,4.85
2019-05-01T20:33:08.866Z,4.75
2019-05-01T20:35:37.465Z,5.17
2019-05-01T20:38:06.245Z,4.58
2019-05-01T20:40:34.919Z,5.25
2019-05-01T20:43:05.832Z,5.08
2019-05-01T20:45:34.683Z,5.28
2019-05-01T20:48:03.641Z,6.33
2019-05-01T20:50:32.208Z,5.62
2019-05-01T20:53:00.856Z,5.87
2019-05-01T20:55:29.418Z,5.45
2019-05-01T20:57:59.634Z,5.08
2019-05-01T21:00:28.515Z,5.05
2019-05-01T21:02:57.074Z,5.10
2019-05-01T21:05:27.398Z,5.10
2019-05-01T21:08:00.498Z,4.62
2019-05-01T21:10:34.366Z,5.10
2019-05-01T21:13:01.166Z,5.03
2019-05-01T21:15:30.305Z,4.22
2019-05-01T21:17:59.277Z,5.50
2019-05-01T21:20:28.242Z,4.90
2019-05-01T21:22:56.832Z,4.20
2019-05-01T21:25:25.478Z,3.40
2019-05-01T21:27:54.210Z,4.15
2019-05-01T21:30:23.716Z,4.55
2019-05-01T21:32:54.093Z,4.83
2019-05-01T21:35:23.956Z,4.97
2019-05-01T21:37:53.007Z,4.55
2019-05-01T21:40:23.008Z,5.03
2019-05-01T21:42:54.901Z,4.55
2019-05-01T21:45:22.968Z,4.62
2019-05-01T21:47:52.858Z,4.58
2019-05-01T21:50:24.957Z,4.90
2019-05-01T21:52:53.778Z,4.55
2019-05-01T21:55:25.807Z,4.33
2019-05-01T21:57:52.607Z,4.58
2019-05-01T22:00:24.773Z,5.08
2019-05-01T22:02:52.206Z,4.30
2019-05-01T22:05:20.851Z,3.90
2019-05-01T22:07:49.462Z,3.83
2019-05-01T22:10:21.531Z,4.20
2019-05-01T22:12:50.844Z,3.75
2019-05-01T22:15:30.794Z,3.20
2019-05-01T22:18:07.180Z,4.37
2019-05-01T22:20:37.386Z,3.80
2019-05-01T22:23:08.250Z,4.12
2019-05-01T22:25:38.555Z,4.10
2019-05-01T22:28:13.968Z,3.67
2019-05-01T22:30:46.185Z,4.22
2019-05-01T22:33:14.986Z,4.05
2019-05-01T22:35:51.430Z,4.15
2019-05-01T22:38:20.238Z,4.45
2019-05-01T22:41:06.597Z,4.22
2019-05-01T22:43:33.265Z,4.42
2019-05-01T22:46:03.401Z,4.55
2019-05-01T22:48:32.342Z,4.20
2019-05-01T22:51:02.930Z,4.10
2019-05-01T22:53:31.445Z,4.05
2019-05-01T22:56:02.347Z,4.05
2019-05-01T22:58:30.435Z,4.20
2019-05-01T23:01:00.830Z,4.22
2019-05-01T23:03:40.616Z,4.15
2019-05-01T23:06:07.899Z,3.83
2019-05-01T23:08:37.182Z,3.37
2019-05-01T23:11:18.807Z,4.40
2019-05-01T23:13:36.571Z,4.12
2019-05-01T23:16:06.483Z,4.50
2019-05-01T23:18:35.091Z,4.72
2019-05-01T23:21:04.162Z,4.08
2019-05-01T23:23:32.898Z,3.83
2019-05-01T23:26:01.623Z,4.35
2019-05-01T23:28:30.197Z,4.00
2019-05-01T23:30:59.125Z,3.80
2019-05-01T23:33:27.829Z,4.17
2019-05-01T23:35:56.476Z,4.78
2019-05-01T23:38:25.373Z,4.78
2019-05-01T23:40:54.017Z,4.80
2019-05-01T23:43:22.975Z,4.95
2019-05-01T23:45:52.824Z,4.97
2019-05-01T23:48:21.479Z,5.42
2019-05-01T23:50:50.123Z,5.00
2019-05-01T23:53:18.722Z,5.15
2019-05-01T23:55:47.438Z,5.10
2019-05-01T23:58:16.111Z,5.30
